sensor_id;sensor_type;location;lat;lon;timestamp;P1;durP1;ratioP1;P2;durP2;ratioP2
63653;SDS011;49809;47.418;19.080;2022-11-20T00:02:33;3.45;;;2.53;;
63653;SDS011;49809;47.418;19.080;2022-11-20T00:05:36;8.57;;;4.20;;
63653;SDS011;49809;47.418;19.080;2022-11-20T00:08:38;6.50;;;3.67;;
63653;SDS011;49809;47.418;19.080;2022-11-20T00:11:42;9.50;;;4.05;;
63653;SDS011;49809;47.418;19.080;2022-11-20T00:14:45;6.25;;;2.85;;
63653;SDS011;49809;47.418;19.080;2022-11-20T00:17:52;5.05;;;2.20;;
63653;SDS011;49809;47.418;19.080;2022-11-20T00:21:00;8.18;;;4.00;;
63653;SDS011;49809;47.418;19.080;2022-11-20T00:24:08;6.12;;;3.17;;
63653;SDS011;49809;47.418;19.080;2022-11-20T00:30:18;4.12;;;2.95;;
63653;SDS011;49809;47.418;19.080;2022-11-20T00:33:25;7.35;;;2.45;;
63653;SDS011;49809;47.418;19.080;2022-11-20T00:36:35;4.60;;;3.17;;
63653;SDS011;49809;47.418;19.080;2022-11-20T00:39:37;6.45;;;3.28;;
63653;SDS011;49809;47.418;19.080;2022-11-20T00:42:43;3.10;;;2.37;;
63653;SDS011;49809;47.418;19.080;2022-11-20T00:45:48;4.57;;;2.83;;
63653;SDS011;49809;47.418;19.080;2022-11-20T00:48:53;8.77;;;3.37;;
63653;SDS011;49809;47.418;19.080;2022-11-20T00:51:59;12.07;;;5.30;;
63653;SDS011;49809;47.418;19.080;2022-11-20T00:55:02;7.28;;;3.50;;
63653;SDS011;49809;47.418;19.080;2022-11-20T00:58:07;8.90;;;4.07;;
63653;SDS011;49809;47.418;19.080;2022-11-20T01:01:39;11.18;;;3.70;;
63653;SDS011;49809;47.418;19.080;2022-11-20T01:04:44;6.78;;;3.97;;
63653;SDS011;49809;47.418;19.080;2022-11-20T01:07:51;4.00;;;3.10;;
63653;SDS011;49809;47.418;19.080;2022-11-20T01:10:58;21.98;;;3.65;;
63653;SDS011;49809;47.418;19.080;2022-11-20T01:14:18;7.22;;;3.00;;
63653;SDS011;49809;47.418;19.080;2022-11-20T01:17:22;6.72;;;2.75;;
63653;SDS011;49809;47.418;19.080;2022-11-20T01:20:25;7.30;;;4.28;;
63653;SDS011;49809;47.418;19.080;2022-11-20T01:23:30;6.00;;;3.03;;
63653;SDS011;49809;47.418;19.080;2022-11-20T01:26:37;8.70;;;4.47;;
63653;SDS011;49809;47.418;19.080;2022-11-20T01:29:41;8.65;;;3.00;;
63653;SDS011;49809;47.418;19.080;2022-11-20T01:32:47;7.30;;;3.95;;
63653;SDS011;49809;47.418;19.080;2022-11-20T01:35:49;12.02;;;4.72;;
63653;SDS011;49809;47.418;19.080;2022-11-20T01:38:58;5.37;;;2.92;;
63653;SDS011;49809;47.418;19.080;2022-11-20T01:42:03;9.02;;;4.07;;
63653;SDS011;49809;47.418;19.080;2022-11-20T01:52:29;5.72;;;3.33;;
63653;SDS011;49809;47.418;19.080;2022-11-20T01:55:44;8.40;;;4.15;;
63653;SDS011;49809;47.418;19.080;2022-11-20T01:58:55;7.50;;;3.95;;
63653;SDS011;49809;47.418;19.080;2022-11-20T02:02:00;6.20;;;4.00;;
63653;SDS011;49809;47.418;19.080;2022-11-20T02:05:09;11.48;;;4.50;;
63653;SDS011;49809;47.418;19.080;2022-11-20T02:08:19;7.82;;;3.30;;
63653;SDS011;49809;47.418;19.080;2022-11-20T02:11:22;8.48;;;3.80;;
63653;SDS011;49809;47.418;19.080;2022-11-20T02:14:27;10.75;;;3.85;;
63653;SDS011;49809;47.418;19.080;2022-11-20T02:17:30;9.32;;;5.37;;
63653;SDS011;49809;47.418;19.080;2022-11-20T02:20:32;8.77;;;4.82;;
63653;SDS011;49809;47.418;19.080;2022-11-20T02:23:38;12.02;;;4.03;;
63653;SDS011;49809;47.418;19.080;2022-11-20T02:26:47;9.25;;;6.20;;
63653;SDS011;49809;47.418;19.080;2022-11-20T02:30:17;10.27;;;4.72;;
63653;SDS011;49809;47.418;19.080;2022-11-20T02:33:22;14.57;;;5.87;;
63653;SDS011;49809;47.418;19.080;2022-11-20T02:36:26;13.20;;;6.20;;
63653;SDS011;49809;47.418;19.080;2022-11-20T02:39:50;13.57;;;5.53;;
63653;SDS011;49809;47.418;19.080;2022-11-20T02:42:55;10.93;;;5.55;;
63653;SDS011;49809;47.418;19.080;2022-11-20T02:46:01;7.60;;;3.90;;
63653;SDS011;49809;47.418;19.080;2022-11-20T02:49:07;11.02;;;5.80;;
63653;SDS011;49809;47.418;19.080;2022-11-20T02:52:10;12.80;;;4.95;;
63653;SDS011;49809;47.418;19.080;2022-11-20T02:55:14;10.23;;;3.55;;
63653;SDS011;49809;47.418;19.080;2022-11-20T02:58:23;12.27;;;5.05;;
63653;SDS011;49809;47.418;19.080;2022-11-20T03:01:26;10.10;;;5.90;;
63653;SDS011;49809;47.418;19.080;2022-11-20T03:04:29;9.68;;;4.97;;
63653;SDS011;49809;47.418;19.080;2022-11-20T03:07:32;12.65;;;5.43;;
63653;SDS011;49809;47.418;19.080;2022-11-20T03:10:40;8.55;;;4.53;;
63653;SDS011;49809;47.418;19.080;2022-11-20T03:13:43;10.05;;;4.00;;
63653;SDS011;49809;47.418;19.080;2022-11-20T03:16:47;7.93;;;4.82;;
63653;SDS011;49809;47.418;19.080;2022-11-20T03:19:50;7.70;;;5.47;;
63653;SDS011;49809;47.418;19.080;2022-11-20T03:22:54;4.68;;;3.53;;
63653;SDS011;49809;47.418;19.080;2022-11-20T03:26:08;12.23;;;5.90;;
63653;SDS011;49809;47.418;19.080;2022-11-20T03:29:14;13.18;;;5.05;;
63653;SDS011;49809;47.418;19.080;2022-11-20T03:32:17;10.23;;;5.70;;
63653;SDS011;49809;47.418;19.080;2022-11-20T03:35:23;10.70;;;5.25;;
63653;SDS011;49809;47.418;19.080;2022-11-20T03:38:28;9.68;;;4.30;;
63653;SDS011;49809;47.418;19.080;2022-11-20T03:41:35;9.88;;;4.18;;
63653;SDS011;49809;47.418;19.080;2022-11-20T03:44:43;10.10;;;4.65;;
63653;SDS011;49809;47.418;19.080;2022-11-20T03:47:48;7.20;;;3.78;;
63653;SDS011;49809;47.418;19.080;2022-11-20T03:50:51;9.52;;;5.25;;
63653;SDS011;49809;47.418;19.080;2022-11-20T03:54:10;6.32;;;4.53;;
63653;SDS011;49809;47.418;19.080;2022-11-20T03:57:17;11.98;;;4.55;;
63653;SDS011;49809;47.418;19.080;2022-11-20T04:00:20;9.48;;;5.75;;
63653;SDS011;49809;47.418;19.080;2022-11-20T04:03:23;11.00;;;4.45;;
63653;SDS011;49809;47.418;19.080;2022-11-20T04:06:28;14.02;;;5.05;;
63653;SDS011;49809;47.418;19.080;2022-11-20T04:09:33;8.85;;;4.65;;
63653;SDS011;49809;47.418;19.080;2022-11-20T04:12:36;9.35;;;5.37;;
63653;SDS011;49809;47.418;19.080;2022-11-20T04:15:39;8.40;;;4.50;;
63653;SDS011;49809;47.418;19.080;2022-11-20T04:18:42;10.32;;;4.45;;
63653;SDS011;49809;47.418;19.080;2022-11-20T04:21:53;9.18;;;4.85;;
63653;SDS011;49809;47.418;19.080;2022-11-20T04:24:58;9.50;;;4.62;;
63653;SDS011;49809;47.418;19.080;2022-11-20T04:28:06;13.40;;;4.25;;
63653;SDS011;49809;47.418;19.080;2022-11-20T04:31:14;8.05;;;5.03;;
63653;SDS011;49809;47.418;19.080;2022-11-20T04:34:38;6.90;;;3.58;;
63653;SDS011;49809;47.418;19.080;2022-11-20T04:37:41;13.75;;;6.00;;
63653;SDS011;49809;47.418;19.080;2022-11-20T04:40:48;8.95;;;4.78;;
63653;SDS011;49809;47.418;19.080;2022-11-20T04:44:02;14.68;;;4.55;;
63653;SDS011;49809;47.418;19.080;2022-11-20T04:47:11;12.30;;;4.95;;
63653;SDS011;49809;47.418;19.080;2022-11-20T04:50:14;15.18;;;6.45;;
63653;SDS011;49809;47.418;19.080;2022-11-20T04:53:18;9.05;;;4.55;;
63653;SDS011;49809;47.418;19.080;2022-11-20T04:56:24;10.32;;;4.30;;
63653;SDS011;49809;47.418;19.080;2022-11-20T04:59:29;13.38;;;5.32;;
63653;SDS011;49809;47.418;19.080;2022-11-20T05:02:33;8.70;;;4.62;;
63653;SDS011;49809;47.418;19.080;2022-11-20T05:05:42;6.40;;;3.85;;
63653;SDS011;49809;47.418;19.080;2022-11-20T05:08:45;9.52;;;4.15;;
63653;SDS011;49809;47.418;19.080;2022-11-20T05:11:48;11.10;;;4.82;;
63653;SDS011;49809;47.418;19.080;2022-11-20T05:14:54;12.48;;;6.35;;
63653;SDS011;49809;47.418;19.080;2022-11-20T05:17:57;9.15;;;4.85;;
63653;SDS011;49809;47.418;19.080;2022-11-20T05:21:00;7.90;;;3.60;;
63653;SDS011;49809;47.418;19.080;2022-11-20T05:27:12;6.05;;;3.35;;
63653;SDS011;49809;47.418;19.080;2022-11-20T05:30:15;5.35;;;3.08;;
63653;SDS011;49809;47.418;19.080;2022-11-20T05:33:20;11.43;;;3.92;;
63653;SDS011;49809;47.418;19.080;2022-11-20T05:36:23;4.87;;;3.60;;
63653;SDS011;49809;47.418;19.080;2022-11-20T05:39:26;8.23;;;3.75;;
63653;SDS011;49809;47.418;19.080;2022-11-20T05:42:30;12.13;;;5.32;;
63653;SDS011;49809;47.418;19.080;2022-11-20T05:45:33;10.48;;;5.07;;
63653;SDS011;49809;47.418;19.080;2022-11-20T05:48:38;11.35;;;5.43;;
63653;SDS011;49809;47.418;19.080;2022-11-20T05:51:45;8.38;;;4.95;;
63653;SDS011;49809;47.418;19.080;2022-11-20T05:54:48;10.75;;;5.75;;
63653;SDS011;49809;47.418;19.080;2022-11-20T05:57:54;15.37;;;5.60;;
63653;SDS011;49809;47.418;19.080;2022-11-20T06:01:05;10.65;;;4.45;;
63653;SDS011;49809;47.418;19.080;2022-11-20T06:04:14;8.88;;;4.57;;
63653;SDS011;49809;47.418;19.080;2022-11-20T06:07:17;9.70;;;4.55;;
63653;SDS011;49809;47.418;19.080;2022-11-20T06:10:22;10.10;;;4.82;;
63653;SDS011;49809;47.418;19.080;2022-11-20T06:13:25;12.30;;;5.60;;
63653;SDS011;49809;47.418;19.080;2022-11-20T06:16:28;16.45;;;5.82;;
63653;SDS011;49809;47.418;19.080;2022-11-20T06:19:31;8.15;;;4.37;;
63653;SDS011;49809;47.418;19.080;2022-11-20T06:22:36;6.95;;;4.68;;
63653;SDS011;49809;47.418;19.080;2022-11-20T06:25:40;14.38;;;5.78;;
63653;SDS011;49809;47.418;19.080;2022-11-20T06:28:44;10.80;;;4.37;;
63653;SDS011;49809;47.418;19.080;2022-11-20T06:31:55;10.02;;;5.15;;
63653;SDS011;49809;47.418;19.080;2022-11-20T06:35:00;8.88;;;4.35;;
63653;SDS011;49809;47.418;19.080;2022-11-20T06:38:02;6.22;;;4.18;;
63653;SDS011;49809;47.418;19.080;2022-11-20T06:41:05;10.68;;;5.22;;
63653;SDS011;49809;47.418;19.080;2022-11-20T06:44:09;8.73;;;4.55;;
63653;SDS011;49809;47.418;19.080;2022-11-20T06:47:12;5.75;;;3.83;;
63653;SDS011;49809;47.418;19.080;2022-11-20T06:50:15;11.25;;;4.00;;
63653;SDS011;49809;47.418;19.080;2022-11-20T06:53:18;7.78;;;3.85;;
63653;SDS011;49809;47.418;19.080;2022-11-20T06:56:21;14.80;;;4.85;;
63653;SDS011;49809;47.418;19.080;2022-11-20T06:59:25;10.18;;;5.40;;
63653;SDS011;49809;47.418;19.080;2022-11-20T07:02:28;16.70;;;4.68;;
63653;SDS011;49809;47.418;19.080;2022-11-20T07:05:31;5.87;;;4.20;;
63653;SDS011;49809;47.418;19.080;2022-11-20T07:08:35;8.07;;;4.95;;
63653;SDS011;49809;47.418;19.080;2022-11-20T07:11:46;13.10;;;4.97;;
63653;SDS011;49809;47.418;19.080;2022-11-20T07:14:50;14.25;;;5.95;;
63653;SDS011;49809;47.418;19.080;2022-11-20T07:17:53;9.15;;;4.78;;
63653;SDS011;49809;47.418;19.080;2022-11-20T07:21:02;12.13;;;4.75;;
63653;SDS011;49809;47.418;19.080;2022-11-20T07:24:07;8.75;;;4.25;;
63653;SDS011;49809;47.418;19.080;2022-11-20T07:27:14;13.40;;;5.20;;
63653;SDS011;49809;47.418;19.080;2022-11-20T07:30:17;13.07;;;6.47;;
63653;SDS011;49809;47.418;19.080;2022-11-20T07:33:20;16.35;;;6.18;;
63653;SDS011;49809;47.418;19.080;2022-11-20T07:36:25;10.88;;;5.68;;
63653;SDS011;49809;47.418;19.080;2022-11-20T07:39:28;9.52;;;5.15;;
63653;SDS011;49809;47.418;19.080;2022-11-20T07:42:31;13.27;;;5.03;;
63653;SDS011;49809;47.418;19.080;2022-11-20T07:45:40;9.43;;;4.62;;
63653;SDS011;49809;47.418;19.080;2022-11-20T07:51:52;9.35;;;3.42;;
63653;SDS011;49809;47.418;19.080;2022-11-20T07:54:56;9.77;;;5.57;;
63653;SDS011;49809;47.418;19.080;2022-11-20T07:58:03;13.23;;;4.68;;
63653;SDS011;49809;47.418;19.080;2022-11-20T08:01:07;9.95;;;5.25;;
63653;SDS011;49809;47.418;19.080;2022-11-20T08:04:14;9.30;;;4.82;;
63653;SDS011;49809;47.418;19.080;2022-11-20T08:07:20;8.73;;;4.20;;
63653;SDS011;49809;47.418;19.080;2022-11-20T08:10:24;7.20;;;4.32;;
63653;SDS011;49809;47.418;19.080;2022-11-20T08:13:29;10.13;;;4.72;;
63653;SDS011;49809;47.418;19.080;2022-11-20T08:17:11;8.10;;;4.50;;
63653;SDS011;49809;47.418;19.080;2022-11-20T08:20:14;11.20;;;5.25;;
63653;SDS011;49809;47.418;19.080;2022-11-20T08:23:39;11.05;;;5.22;;
63653;SDS011;49809;47.418;19.080;2022-11-20T08:26:44;7.78;;;5.00;;
63653;SDS011;49809;47.418;19.080;2022-11-20T08:29:47;10.85;;;5.37;;
63653;SDS011;49809;47.418;19.080;2022-11-20T08:32:50;9.82;;;5.28;;
63653;SDS011;49809;47.418;19.080;2022-11-20T08:35:53;13.95;;;5.85;;
63653;SDS011;49809;47.418;19.080;2022-11-20T08:39:03;12.10;;;5.10;;
63653;SDS011;49809;47.418;19.080;2022-11-20T08:42:09;8.63;;;4.50;;
63653;SDS011;49809;47.418;19.080;2022-11-20T08:45:12;13.77;;;5.45;;
63653;SDS011;49809;47.418;19.080;2022-11-20T08:48:34;10.13;;;5.03;;
63653;SDS011;49809;47.418;19.080;2022-11-20T08:51:38;10.23;;;5.10;;
63653;SDS011;49809;47.418;19.080;2022-11-20T08:54:46;8.57;;;4.10;;
63653;SDS011;49809;47.418;19.080;2022-11-20T08:57:51;12.65;;;6.32;;
63653;SDS011;49809;47.418;19.080;2022-11-20T09:00:55;14.02;;;6.25;;
63653;SDS011;49809;47.418;19.080;2022-11-20T09:03:58;14.98;;;6.07;;
63653;SDS011;49809;47.418;19.080;2022-11-20T09:07:02;13.05;;;5.35;;
63653;SDS011;49809;47.418;19.080;2022-11-20T09:10:06;11.55;;;6.03;;
63653;SDS011;49809;47.418;19.080;2022-11-20T09:13:31;9.10;;;5.57;;
63653;SDS011;49809;47.418;19.080;2022-11-20T09:16:50;10.70;;;4.40;;
63653;SDS011;49809;47.418;19.080;2022-11-20T09:19:53;11.23;;;5.35;;
63653;SDS011;49809;47.418;19.080;2022-11-20T09:22:56;13.75;;;5.70;;
63653;SDS011;49809;47.418;19.080;2022-11-20T09:26:09;12.48;;;6.10;;
63653;SDS011;49809;47.418;19.080;2022-11-20T09:29:20;9.40;;;5.05;;
63653;SDS011;49809;47.418;19.080;2022-11-20T09:32:25;13.05;;;5.62;;
63653;SDS011;49809;47.418;19.080;2022-11-20T09:35:30;14.10;;;5.82;;
63653;SDS011;49809;47.418;19.080;2022-11-20T09:38:36;13.10;;;5.65;;
63653;SDS011;49809;47.418;19.080;2022-11-20T09:56:11;14.05;;;6.10;;
63653;SDS011;49809;47.418;19.080;2022-11-20T09:59:42;12.93;;;6.60;;
63653;SDS011;49809;47.418;19.080;2022-11-20T10:03:01;14.20;;;6.47;;
63653;SDS011;49809;47.418;19.080;2022-11-20T10:06:20;10.85;;;5.53;;
63653;SDS011;49809;47.418;19.080;2022-11-20T10:12:57;19.17;;;7.15;;
63653;SDS011;49809;47.418;19.080;2022-11-20T10:20:01;11.93;;;5.70;;
63653;SDS011;49809;47.418;19.080;2022-11-20T10:23:43;12.07;;;5.57;;
63653;SDS011;49809;47.418;19.080;2022-11-20T10:30:11;11.68;;;5.53;;
63653;SDS011;49809;47.418;19.080;2022-11-20T10:33:17;14.68;;;6.28;;
63653;SDS011;49809;47.418;19.080;2022-11-20T10:36:44;10.73;;;5.65;;
63653;SDS011;49809;47.418;19.080;2022-11-20T10:40:00;8.18;;;5.07;;
63653;SDS011;49809;47.418;19.080;2022-11-20T10:43:15;12.35;;;6.07;;
63653;SDS011;49809;47.418;19.080;2022-11-20T10:46:44;10.73;;;5.75;;
63653;SDS011;49809;47.418;19.080;2022-11-20T10:50:01;15.07;;;5.85;;
63653;SDS011;49809;47.418;19.080;2022-11-20T10:56:52;12.50;;;5.45;;
63653;SDS011;49809;47.418;19.080;2022-11-20T11:00:07;12.07;;;6.18;;
63653;SDS011;49809;47.418;19.080;2022-11-20T11:03:20;11.38;;;5.82;;
63653;SDS011;49809;47.418;19.080;2022-11-20T11:09:43;13.00;;;5.47;;
63653;SDS011;49809;47.418;19.080;2022-11-20T11:12:50;15.68;;;6.85;;
63653;SDS011;49809;47.418;19.080;2022-11-20T11:15:53;16.15;;;6.05;;
63653;SDS011;49809;47.418;19.080;2022-11-20T11:19:06;14.65;;;6.60;;
63653;SDS011;49809;47.418;19.080;2022-11-20T11:23:10;15.23;;;6.40;;
63653;SDS011;49809;47.418;19.080;2022-11-20T11:26:35;15.95;;;5.93;;
63653;SDS011;49809;47.418;19.080;2022-11-20T11:29:40;12.48;;;6.53;;
63653;SDS011;49809;47.418;19.080;2022-11-20T11:32:46;12.23;;;6.47;;
63653;SDS011;49809;47.418;19.080;2022-11-20T11:36:02;12.57;;;6.32;;
63653;SDS011;49809;47.418;19.080;2022-11-20T11:39:19;17.90;;;6.37;;
63653;SDS011;49809;47.418;19.080;2022-11-20T11:42:32;11.10;;;5.68;;
63653;SDS011;49809;47.418;19.080;2022-11-20T11:45:50;13.73;;;6.85;;
63653;SDS011;49809;47.418;19.080;2022-11-20T11:52:13;13.82;;;6.37;;
63653;SDS011;49809;47.418;19.080;2022-11-20T11:55:29;12.50;;;5.80;;
63653;SDS011;49809;47.418;19.080;2022-11-20T11:58:51;10.25;;;6.03;;
63653;SDS011;49809;47.418;19.080;2022-11-20T12:01:57;12.45;;;6.05;;
63653;SDS011;49809;47.418;19.080;2022-11-20T12:05:42;15.18;;;5.62;;
63653;SDS011;49809;47.418;19.080;2022-11-20T12:08:49;14.48;;;6.10;;
63653;SDS011;49809;47.418;19.080;2022-11-20T12:12:02;13.57;;;6.35;;
63653;SDS011;49809;47.418;19.080;2022-11-20T12:15:19;11.73;;;5.20;;
63653;SDS011;49809;47.418;19.080;2022-11-20T12:18:32;11.15;;;6.40;;
63653;SDS011;49809;47.418;19.080;2022-11-20T12:25:48;11.65;;;6.65;;
63653;SDS011;49809;47.418;19.080;2022-11-20T12:37:04;12.80;;;6.75;;
63653;SDS011;49809;47.418;19.080;2022-11-20T12:44:06;12.13;;;6.32;;
63653;SDS011;49809;47.418;19.080;2022-11-20T13:02:48;14.43;;;6.25;;
63653;SDS011;49809;47.418;19.080;2022-11-20T13:06:30;11.80;;;5.95;;
63653;SDS011;49809;47.418;19.080;2022-11-20T13:10:05;10.93;;;6.10;;
63653;SDS011;49809;47.418;19.080;2022-11-20T13:13:25;11.73;;;5.47;;
63653;SDS011;49809;47.418;19.080;2022-11-20T13:20:20;12.82;;;5.35;;
63653;SDS011;49809;47.418;19.080;2022-11-20T13:23:53;11.82;;;6.03;;
63653;SDS011;49809;47.418;19.080;2022-11-20T13:27:18;13.73;;;6.00;;
63653;SDS011;49809;47.418;19.080;2022-11-20T13:30:25;13.52;;;6.05;;
63653;SDS011;49809;47.418;19.080;2022-11-20T13:34:34;12.75;;;5.50;;
63653;SDS011;49809;47.418;19.080;2022-11-20T13:37:38;12.00;;;5.87;;
63653;SDS011;49809;47.418;19.080;2022-11-20T13:41:02;10.23;;;5.10;;
63653;SDS011;49809;47.418;19.080;2022-11-20T13:44:29;10.43;;;5.62;;
63653;SDS011;49809;47.418;19.080;2022-11-20T13:47:46;12.88;;;5.70;;
63653;SDS011;49809;47.418;19.080;2022-11-20T14:01:52;9.65;;;4.75;;
63653;SDS011;49809;47.418;19.080;2022-11-20T14:04:57;9.27;;;5.15;;
63653;SDS011;49809;47.418;19.080;2022-11-20T14:08:04;12.32;;;5.55;;
63653;SDS011;49809;47.418;19.080;2022-11-20T14:14:23;12.02;;;5.75;;
63653;SDS011;49809;47.418;19.080;2022-11-20T14:17:34;14.82;;;6.32;;
63653;SDS011;49809;47.418;19.080;2022-11-20T14:21:00;12.82;;;5.10;;
63653;SDS011;49809;47.418;19.080;2022-11-20T14:24:06;9.63;;;5.35;;
63653;SDS011;49809;47.418;19.080;2022-11-20T14:27:36;13.70;;;6.05;;
63653;SDS011;49809;47.418;19.080;2022-11-20T14:30:46;12.77;;;5.65;;
63653;SDS011;49809;47.418;19.080;2022-11-20T14:33:54;12.37;;;5.95;;
63653;SDS011;49809;47.418;19.080;2022-11-20T14:37:01;13.32;;;6.60;;
63653;SDS011;49809;47.418;19.080;2022-11-20T14:40:22;14.48;;;7.07;;
63653;SDS011;49809;47.418;19.080;2022-11-20T14:43:34;9.20;;;5.28;;
63653;SDS011;49809;47.418;19.080;2022-11-20T14:46:39;11.02;;;6.12;;
63653;SDS011;49809;47.418;19.080;2022-11-20T14:49:44;15.52;;;5.72;;
63653;SDS011;49809;47.418;19.080;2022-11-20T14:52:54;12.70;;;6.47;;
63653;SDS011;49809;47.418;19.080;2022-11-20T14:56:05;14.13;;;6.50;;
63653;SDS011;49809;47.418;19.080;2022-11-20T14:59:10;11.80;;;5.37;;
63653;SDS011;49809;47.418;19.080;2022-11-20T15:02:18;9.38;;;4.85;;
63653;SDS011;49809;47.418;19.080;2022-11-20T15:05:25;15.77;;;6.25;;
63653;SDS011;49809;47.418;19.080;2022-11-20T15:08:52;17.23;;;5.70;;
63653;SDS011;49809;47.418;19.080;2022-11-20T15:12:20;12.73;;;5.93;;
63653;SDS011;49809;47.418;19.080;2022-11-20T15:15:51;13.27;;;5.45;;
63653;SDS011;49809;47.418;19.080;2022-11-20T15:18:56;13.32;;;6.65;;
63653;SDS011;49809;47.418;19.080;2022-11-20T15:22:06;13.10;;;6.32;;
63653;SDS011;49809;47.418;19.080;2022-11-20T15:25:15;13.20;;;5.87;;
63653;SDS011;49809;47.418;19.080;2022-11-20T15:31:42;11.60;;;5.05;;
63653;SDS011;49809;47.418;19.080;2022-11-20T15:34:48;14.97;;;6.00;;
63653;SDS011;49809;47.418;19.080;2022-11-20T15:37:59;12.23;;;4.60;;
63653;SDS011;49809;47.418;19.080;2022-11-20T15:41:02;11.30;;;5.50;;
63653;SDS011;49809;47.418;19.080;2022-11-20T15:44:08;7.27;;;4.27;;
63653;SDS011;49809;47.418;19.080;2022-11-20T15:47:13;8.85;;;4.75;;
63653;SDS011;49809;47.418;19.080;2022-11-20T15:50:19;16.23;;;5.37;;
63653;SDS011;49809;47.418;19.080;2022-11-20T15:53:24;11.70;;;5.28;;
63653;SDS011;49809;47.418;19.080;2022-11-20T15:56:27;16.60;;;7.05;;
63653;SDS011;49809;47.418;19.080;2022-11-20T15:59:42;7.75;;;5.05;;
63653;SDS011;49809;47.418;19.080;2022-11-20T16:02:46;9.32;;;5.53;;
63653;SDS011;49809;47.418;19.080;2022-11-20T16:05:51;18.87;;;7.43;;
63653;SDS011;49809;47.418;19.080;2022-11-20T16:08:56;22.20;;;9.18;;
63653;SDS011;49809;47.418;19.080;2022-11-20T16:12:08;17.35;;;8.20;;
63653;SDS011;49809;47.418;19.080;2022-11-20T16:15:33;12.43;;;6.75;;
63653;SDS011;49809;47.418;19.080;2022-11-20T16:18:55;13.30;;;7.55;;
63653;SDS011;49809;47.418;19.080;2022-11-20T16:22:00;14.50;;;7.82;;
63653;SDS011;49809;47.418;19.080;2022-11-20T16:25:07;21.62;;;8.05;;
63653;SDS011;49809;47.418;19.080;2022-11-20T16:28:10;22.27;;;10.38;;
63653;SDS011;49809;47.418;19.080;2022-11-20T16:31:22;16.30;;;7.93;;
63653;SDS011;49809;47.418;19.080;2022-11-20T16:34:26;14.38;;;7.85;;
63653;SDS011;49809;47.418;19.080;2022-11-20T16:37:30;19.17;;;8.60;;
63653;SDS011;49809;47.418;19.080;2022-11-20T16:40:32;23.80;;;11.18;;
63653;SDS011;49809;47.418;19.080;2022-11-20T16:43:36;27.92;;;13.98;;
63653;SDS011;49809;47.418;19.080;2022-11-20T16:46:45;28.85;;;13.32;;
63653;SDS011;49809;47.418;19.080;2022-11-20T16:50:09;23.00;;;11.00;;
63653;SDS011;49809;47.418;19.080;2022-11-20T16:53:12;30.37;;;14.60;;
63653;SDS011;49809;47.418;19.080;2022-11-20T16:56:20;25.20;;;12.00;;
63653;SDS011;49809;47.418;19.080;2022-11-20T16:59:25;21.75;;;11.77;;
63653;SDS011;49809;47.418;19.080;2022-11-20T17:02:36;28.83;;;11.85;;
63653;SDS011;49809;47.418;19.080;2022-11-20T17:05:42;25.73;;;13.30;;
63653;SDS011;49809;47.418;19.080;2022-11-20T17:08:50;25.77;;;11.68;;
63653;SDS011;49809;47.418;19.080;2022-11-20T17:11:54;23.75;;;11.43;;
63653;SDS011;49809;47.418;19.080;2022-11-20T17:18:14;19.58;;;10.10;;
63653;SDS011;49809;47.418;19.080;2022-11-20T17:21:17;16.10;;;10.52;;
63653;SDS011;49809;47.418;19.080;2022-11-20T17:24:23;20.37;;;10.77;;
63653;SDS011;49809;47.418;19.080;2022-11-20T17:28:02;18.50;;;10.00;;
63653;SDS011;49809;47.418;19.080;2022-11-20T17:31:09;24.25;;;11.35;;
63653;SDS011;49809;47.418;19.080;2022-11-20T17:34:19;21.83;;;10.15;;
63653;SDS011;49809;47.418;19.080;2022-11-20T17:37:23;23.33;;;11.50;;
63653;SDS011;49809;47.418;19.080;2022-11-20T17:40:32;18.70;;;9.40;;
63653;SDS011;49809;47.418;19.080;2022-11-20T17:43:38;20.25;;;11.27;;
63653;SDS011;49809;47.418;19.080;2022-11-20T17:46:41;30.35;;;12.30;;
63653;SDS011;49809;47.418;19.080;2022-11-20T17:49:44;27.62;;;13.80;;
63653;SDS011;49809;47.418;19.080;2022-11-20T17:52:47;24.42;;;11.93;;
63653;SDS011;49809;47.418;19.080;2022-11-20T17:55:56;32.45;;;13.05;;
63653;SDS011;49809;47.418;19.080;2022-11-20T17:59:18;18.87;;;10.65;;
63653;SDS011;49809;47.418;19.080;2022-11-20T18:02:23;21.50;;;10.48;;
63653;SDS011;49809;47.418;19.080;2022-11-20T18:05:49;24.12;;;11.90;;
63653;SDS011;49809;47.418;19.080;2022-11-20T18:08:56;29.20;;;14.93;;
63653;SDS011;49809;47.418;19.080;2022-11-20T18:12:01;28.30;;;14.10;;
63653;SDS011;49809;47.418;19.080;2022-11-20T18:15:04;19.42;;;11.98;;
63653;SDS011;49809;47.418;19.080;2022-11-20T18:18:10;21.55;;;14.30;;
63653;SDS011;49809;47.418;19.080;2022-11-20T18:21:13;33.20;;;15.40;;
63653;SDS011;49809;47.418;19.080;2022-11-20T18:24:18;34.80;;;14.40;;
63653;SDS011;49809;47.418;19.080;2022-11-20T18:27:21;20.62;;;12.63;;
63653;SDS011;49809;47.418;19.080;2022-11-20T18:30:28;29.92;;;12.32;;
63653;SDS011;49809;47.418;19.080;2022-11-20T18:33:32;26.62;;;12.77;;
63653;SDS011;49809;47.418;19.080;2022-11-20T18:36:35;25.37;;;12.63;;
63653;SDS011;49809;47.418;19.080;2022-11-20T18:39:37;29.92;;;15.10;;
63653;SDS011;49809;47.418;19.080;2022-11-20T18:42:41;26.95;;;15.52;;
63653;SDS011;49809;47.418;19.080;2022-11-20T18:46:03;27.05;;;14.50;;
63653;SDS011;49809;47.418;19.080;2022-11-20T18:49:11;24.67;;;13.75;;
63653;SDS011;49809;47.418;19.080;2022-11-20T18:52:14;36.70;;;16.48;;
63653;SDS011;49809;47.418;19.080;2022-11-20T18:55:17;32.72;;;16.87;;
63653;SDS011;49809;47.418;19.080;2022-11-20T18:58:19;26.37;;;14.20;;
63653;SDS011;49809;47.418;19.080;2022-11-20T19:01:42;32.58;;;15.30;;
63653;SDS011;49809;47.418;19.080;2022-11-20T19:04:47;27.70;;;13.65;;
63653;SDS011;49809;47.418;19.080;2022-11-20T19:07:56;24.00;;;12.45;;
63653;SDS011;49809;47.418;19.080;2022-11-20T19:11:08;27.85;;;15.35;;
63653;SDS011;49809;47.418;19.080;2022-11-20T19:14:18;26.77;;;13.53;;
63653;SDS011;49809;47.418;19.080;2022-11-20T19:17:24;22.40;;;13.23;;
63653;SDS011;49809;47.418;19.080;2022-11-20T19:20:33;33.35;;;13.90;;
63653;SDS011;49809;47.418;19.080;2022-11-20T19:23:37;21.05;;;13.52;;
63653;SDS011;49809;47.418;19.080;2022-11-20T19:26:59;21.73;;;11.35;;
63653;SDS011;49809;47.418;19.080;2022-11-20T19:34:41;21.52;;;13.38;;
63653;SDS011;49809;47.418;19.080;2022-11-20T19:37:47;25.88;;;10.95;;
63653;SDS011;49809;47.418;19.080;2022-11-20T19:40:54;24.67;;;14.68;;
63653;SDS011;49809;47.418;19.080;2022-11-20T19:43:58;24.27;;;13.23;;
63653;SDS011;49809;47.418;19.080;2022-11-20T19:47:09;38.88;;;15.70;;
63653;SDS011;49809;47.418;19.080;2022-11-20T19:50:15;31.02;;;15.43;;
63653;SDS011;49809;47.418;19.080;2022-11-20T19:53:21;32.72;;;15.43;;
63653;SDS011;49809;47.418;19.080;2022-11-20T19:56:24;29.25;;;12.95;;
63653;SDS011;49809;47.418;19.080;2022-11-20T19:59:29;28.67;;;15.57;;
63653;SDS011;49809;47.418;19.080;2022-11-20T20:02:34;29.73;;;13.75;;
63653;SDS011;49809;47.418;19.080;2022-11-20T20:05:38;25.23;;;12.23;;
63653;SDS011;49809;47.418;19.080;2022-11-20T20:08:43;34.78;;;13.85;;
63653;SDS011;49809;47.418;19.080;2022-11-20T20:11:46;27.77;;;14.05;;
63653;SDS011;49809;47.418;19.080;2022-11-20T20:14:50;19.75;;;12.82;;
63653;SDS011;49809;47.418;19.080;2022-11-20T20:17:54;24.58;;;13.93;;
63653;SDS011;49809;47.418;19.080;2022-11-20T20:21:00;40.22;;;14.43;;